Time;durP1;ratioP1;P1;durP2;ratioP2;P2;SDS_P1;SDS_P2;PMS_P1;PMS_P2;Temp;Humidity;BMP_temperature;BMP_pressure;BME280_temperature;BME280_humidity;BME280_pressure;Samples;Min_cycle;Max_cycle;Signal;HPM_P1;HPM_P2
2023/08/30 00:00:36;;;;;;;4.13;3.72;;;;;;;;;;5014451;28;20048;-80
2023/08/30 00:03:02;;;;;;;4.55;4.10;;;;;;;;;;5008619;28;20057;-79
2023/08/30 00:05:28;;;;;;;4.60;4.20;;;;;;;;;;5003227;28;20037;-80
2023/08/30 00:07:54;;;;;;;4.15;3.85;;;;;;;;;;4995227;28;20026;-81
2023/08/30 00:10:20;;;;;;;4.25;3.85;;;;;;;;;;4985764;28;20105;-81
2023/08/30 00:12:46;;;;;;;4.65;4.25;;;;;;;;;;5008351;28;20094;-78
2023/08/30 00:15:13;;;;;;;4.80;4.30;;;;;;;;;;5004451;28;20030;-80
2023/08/30 00:17:39;;;;;;;4.70;4.20;;;;;;;;;;5005825;28;20046;-79
2023/08/30 00:20:06;;;;;;;3.97;3.60;;;;;;;;;;5006102;28;20159;-80
2023/08/30 00:22:33;;;;;;;3.53;3.22;;;;;;;;;;5006882;28;20023;-79
2023/08/30 00:24:59;;;;;;;4.82;4.32;;;;;;;;;;5002802;28;20029;-79
2023/08/30 00:27:25;;;;;;;4.40;4.00;;;;;;;;;;5002653;28;20381;-79
2023/08/30 00:29:51;;;;;;;5.35;4.70;;;;;;;;;;4990137;28;20077;-79
2023/08/30 00:32:17;;;;;;;5.20;4.70;;;;;;;;;;5004193;28;20030;-79
2023/08/30 00:34:43;;;;;;;5.28;4.78;;;;;;;;;;4988207;28;20456;-79
2023/08/30 00:37:10;;;;;;;5.43;4.93;;;;;;;;;;5008441;28;20162;-80
2023/08/30 00:39:39;;;;;;;5.30;4.80;;;;;;;;;;4990077;28;20038;-79
2023/08/30 00:42:07;;;;;;;5.07;4.57;;;;;;;;;;5008317;28;20041;-80
2023/08/30 00:44:33;;;;;;;4.88;4.22;;;;;;;;;;5007240;28;20493;-80
2023/08/30 00:47:00;;;;;;;4.40;3.95;;;;;;;;;;5005657;28;20022;-80
2023/08/30 00:49:26;;;;;;;4.38;3.95;;;;;;;;;;5005479;28;20030;-79
2023/08/30 00:51:53;;;;;;;4.00;3.70;;;;;;;;;;4985194;28;20041;-80
2023/08/30 00:54:19;;;;;;;4.53;4.13;;;;;;;;;;4998367;28;20047;-79
2023/08/30 00:56:46;;;;;;;4.93;4.40;;;;;;;;;;5004539;28;20094;-80
2023/08/30 00:59:12;;;;;;;5.00;4.50;;;;;;;;;;5007711;28;20050;-80
2023/08/30 01:01:38;;;;;;;4.10;3.80;;;;;;;;;;5003857;28;20033;-80
2023/08/30 01:04:05;;;;;;;4.38;3.97;;;;;;;;;;4998492;28;20018;-80
2023/08/30 01:06:31;;;;;;;4.07;3.53;;;;;;;;;;4982281;28;20042;-80
2023/08/30 01:08:57;;;;;;;3.50;3.20;;;;;;;;;;5008436;28;20031;-80
2023/08/30 01:11:37;;;;;;;3.38;3.08;;;;;;;;;;5005937;28;20434;-81
2023/08/30 01:14:08;;;;;;;2.58;2.38;;;;;;;;;;4981680;28;20074;-80
2023/08/30 01:16:36;;;;;;;2.85;2.65;;;;;;;;;;5003922;28;20079;-80
2023/08/30 01:19:11;;;;;;;2.50;2.30;;;;;;;;;;4996987;28;20403;-80
2023/08/30 01:21:53;;;;;;;2.63;2.42;;;;;;;;;;4988528;28;20034;-80
2023/08/30 01:24:29;;;;;;;2.55;2.35;;;;;;;;;;5005281;28;20033;-80
2023/08/30 01:27:04;;;;;;;2.13;2.00;;;;;;;;;;4997821;28;20109;-80
2023/08/30 01:29:31;;;;;;;1.90;1.80;;;;;;;;;;5002685;28;20034;-80
2023/08/30 01:31:58;;;;;;;1.60;1.50;;;;;;;;;;4990594;28;20049;-80
2023/08/30 01:34:25;;;;;;;1.63;1.52;;;;;;;;;;5005729;28;20076;-79
2023/08/30 01:36:52;;;;;;;2.58;2.38;;;;;;;;;;4998148;28;20023;-79
2023/08/30 01:39:18;;;;;;;2.17;2.00;;;;;;;;;;4994629;28;20049;-80
2023/08/30 01:41:44;;;;;;;2.08;1.98;;;;;;;;;;4989778;28;20034;-80
2023/08/30 01:44:11;;;;;;;1.77;1.67;;;;;;;;;;5007040;28;20043;-79
2023/08/30 01:46:38;;;;;;;1.75;1.65;;;;;;;;;;5002189;28;20038;-80
2023/08/30 01:49:05;;;;;;;2.17;1.92;;;;;;;;;;5006275;28;20049;-78
2023/08/30 01:51:32;;;;;;;2.28;2.08;;;;;;;;;;4997533;28;20030;-80
2023/08/30 01:53:58;;;;;;;2.22;2.03;;;;;;;;;;5002873;28;20502;-80
2023/08/30 01:56:24;;;;;;;2.10;2.00;;;;;;;;;;4999875;28;20042;-80
2023/08/30 01:58:50;;;;;;;2.97;2.00;;;;;;;;;;5000762;28;20102;-80
2023/08/30 02:01:16;;;;;;;2.00;1.90;;;;;;;;;;4985617;28;20053;-80
2023/08/30 02:03:45;;;;;;;3.10;2.80;;;;;;;;;;4987897;28;20071;-80
2023/08/30 02:06:34;;;;;;;3.33;2.83;;;;;;;;;;4991703;28;20045;-80
2023/08/30 02:09:06;;;;;;;2.83;2.63;;;;;;;;;;4983895;28;20394;-80
2023/08/30 02:11:33;;;;;;;3.38;3.05;;;;;;;;;;4982368;28;20026;-79
2023/08/30 02:14:00;;;;;;;3.28;2.97;;;;;;;;;;4986621;28;20026;-80
2023/08/30 02:16:27;;;;;;;2.63;2.42;;;;;;;;;;4962701;28;20026;-79
2023/08/30 02:18:53;;;;;;;2.15;2.05;;;;;;;;;;4977499;28;20449;-80
2023/08/30 02:21:20;;;;;;;2.08;1.98;;;;;;;;;;4965974;28;20029;-80
2023/08/30 02:23:50;;;;;;;2.03;1.92;;;;;;;;;;4984591;28;20038;-80
2023/08/30 02:26:19;;;;;;;1.65;1.55;;;;;;;;;;4970092;28;20034;-80
2023/08/30 02:28:45;;;;;;;1.80;1.70;;;;;;;;;;4983363;28;20041;-79
2023/08/30 02:31:11;;;;;;;1.65;1.58;;;;;;;;;;4996087;28;20031;-79
2023/08/30 02:33:37;;;;;;;1.98;1.88;;;;;;;;;;4988607;28;20030;-79
2023/08/30 02:36:04;;;;;;;1.70;1.60;;;;;;;;;;4967647;28;20025;-80
2023/08/30 02:38:30;;;;;;;1.77;1.63;;;;;;;;;;4984302;28;20053;-80
2023/08/30 02:40:56;;;;;;;1.98;1.88;;;;;;;;;;4968636;28;20033;-80
2023/08/30 02:43:22;;;;;;;2.72;2.08;;;;;;;;;;4984379;28;20113;-80
2023/08/30 02:45:48;;;;;;;2.40;2.20;;;;;;;;;;4983215;28;20064;-80
2023/08/30 02:48:15;;;;;;;2.40;2.20;;;;;;;;;;4987763;28;20529;-79
2023/08/30 02:50:41;;;;;;;2.13;2.03;;;;;;;;;;4983164;28;20030;-80
2023/08/30 02:53:10;;;;;;;2.08;1.88;;;;;;;;;;4984548;28;20089;-80
2023/08/30 02:55:37;;;;;;;1.90;1.80;;;;;;;;;;4989964;28;20145;-80
2023/08/30 02:58:03;;;;;;;1.58;1.48;;;;;;;;;;4984567;28;20430;-79
2023/08/30 03:00:29;;;;;;;2.00;1.90;;;;;;;;;;4984415;28;20041;-79
2023/08/30 03:02:55;;;;;;;2.50;2.30;;;;;;;;;;4985723;28;20034;-80
2023/08/30 03:05:21;;;;;;;1.90;1.80;;;;;;;;;;4979959;28;20548;-77
2023/08/30 03:07:47;;;;;;;1.92;1.83;;;;;;;;;;4975222;28;20048;-80
2023/08/30 03:10:13;;;;;;;1.83;1.73;;;;;;;;;;4980069;28;20037;-80
2023/08/30 03:12:39;;;;;;;1.73;1.63;;;;;;;;;;4958196;28;20031;-78
2023/08/30 03:15:06;;;;;;;1.45;1.35;;;;;;;;;;4975087;28;20030;-79
2023/08/30 03:17:32;;;;;;;1.27;1.27;;;;;;;;;;4975144;28;20039;-78
2023/08/30 03:19:58;;;;;;;1.40;1.27;;;;;;;;;;4975216;28;20045;-78
2023/08/30 03:22:24;;;;;;;1.52;1.42;;;;;;;;;;4977136;28;20106;-78
2023/08/30 03:24:50;;;;;;;1.40;1.30;;;;;;;;;;4976741;28;20126;-79
2023/08/30 03:27:19;;;;;;;1.27;1.27;;;;;;;;;;4978363;28;20046;-78
2023/08/30 03:29:45;;;;;;;1.83;1.73;;;;;;;;;;4978864;28;20027;-77
2023/08/30 03:32:11;;;;;;;1.77;1.67;;;;;;;;;;4975804;28;20385;-78
2023/08/30 03:34:37;;;;;;;1.70;1.60;;;;;;;;;;4958467;28;20034;-78
2023/08/30 03:37:03;;;;;;;2.28;2.15;;;;;;;;;;4962962;28;20074;-79
2023/08/30 03:39:29;;;;;;;2.15;2.03;;;;;;;;;;4979945;28;20030;-82
2023/08/30 03:41:55;;;;;;;2.10;2.00;;;;;;;;;;4960137;28;20023;-79
2023/08/30 03:44:21;;;;;;;2.00;1.90;;;;;;;;;;4977971;28;20094;-80
2023/08/30 03:46:47;;;;;;;1.92;1.83;;;;;;;;;;4977183;28;20030;-80
2023/08/30 03:49:13;;;;;;;1.80;1.70;;;;;;;;;;4977764;28;20031;-79
2023/08/30 03:51:40;;;;;;;2.55;2.35;;;;;;;;;;4978081;28;20019;-79
2023/08/30 03:54:06;;;;;;;2.20;2.00;;;;;;;;;;4977479;28;20107;-78
2023/08/30 03:56:32;;;;;;;1.88;1.77;;;;;;;;;;4977704;28;20058;-79
2023/08/30 03:58:58;;;;;;;1.58;1.48;;;;;;;;;;4960525;28;20506;-79
2023/08/30 04:01:24;;;;;;;1.70;1.60;;;;;;;;;;4961032;28;20085;-79
2023/08/30 04:03:50;;;;;;;1.40;1.40;;;;;;;;;;4979115;28;20030;-81
2023/08/30 04:06:16;;;;;;;1.40;1.33;;;;;;;;;;4980230;28;20030;-80
2023/08/30 04:08:42;;;;;;;2.03;1.77;;;;;;;;;;4973853;28;20109;-79
2023/08/30 04:11:08;;;;;;;1.75;1.60;;;;;;;;;;4981417;28;20111;-78
2023/08/30 04:13:35;;;;;;;1.40;1.30;;;;;;;;;;4969661;28;20030;-79
2023/08/30 04:16:01;;;;;;;1.63;1.52;;;;;;;;;;4986618;28;20023;-78
2023/08/30 04:18:27;;;;;;;1.95;1.85;;;;;;;;;;4980661;28;20077;-78
2023/08/30 04:20:53;;;;;;;2.20;2.10;;;;;;;;;;4981710;28;20031;-79
2023/08/30 04:23:19;;;;;;;1.83;1.73;;;;;;;;;;4980844;28;20035;-78
2023/08/30 04:25:45;;;;;;;1.52;1.42;;;;;;;;;;4981782;28;20031;-79
2023/08/30 04:28:11;;;;;;;1.90;1.80;;;;;;;;;;4964611;28;20031;-79
2023/08/30 04:30:38;;;;;;;2.00;1.90;;;;;;;;;;4977777;28;20033;-79
2023/08/30 04:33:05;;;;;;;2.00;1.90;;;;;;;;;;4980538;28;20363;-79
2023/08/30 04:35:31;;;;;;;2.10;2.00;;;;;;;;;;4981158;28;20022;-79
2023/08/30 04:37:58;;;;;;;2.00;1.90;;;;;;;;;;4965067;28;20022;-79
2023/08/30 04:40:25;;;;;;;1.80;1.70;;;;;;;;;;4976945;28;20042;-79
2023/08/30 04:42:51;;;;;;;2.63;2.42;;;;;;;;;;4959802;28;20402;-78
2023/08/30 04:45:17;;;;;;;3.25;2.95;;;;;;;;;;4978574;28;20026;-78
2023/08/30 04:47:45;;;;;;;3.97;3.67;;;;;;;;;;4986911;28;20165;-78
2023/08/30 04:50:11;;;;;;;4.45;4.05;;;;;;;;;;4985141;28;20058;-79
2023/08/30 04:52:37;;;;;;;4.55;4.15;;;;;;;;;;4977312;28;20023;-77
2023/08/30 04:55:03;;;;;;;4.55;4.15;;;;;;;;;;4977257;28;20035;-78
2023/08/30 04:57:30;;;;;;;6.13;4.63;;;;;;;;;;4984975;28;20113;-78
2023/08/30 04:59:56;;;;;;;4.25;3.90;;;;;;;;;;4996230;28;20030;-79
2023/08/30 05:02:22;;;;;;;4.47;4.07;;;;;;;;;;4985224;28;20078;-79
2023/08/30 05:04:48;;;;;;;3.78;3.47;;;;;;;;;;4978590;28;20037;-78
2023/08/30 05:07:14;;;;;;;4.47;4.07;;;;;;;;;;4977034;28;20030;-79
2023/08/30 05:09:40;;;;;;;3.72;3.42;;;;;;;;;;4977093;28;20023;-79
2023/08/30 05:12:07;;;;;;;4.28;3.88;;;;;;;;;;4992507;28;20015;-79
2023/08/30 05:14:33;;;;;;;5.38;4.88;;;;;;;;;;4997411;28;20042;-77
2023/08/30 05:16:59;;;;;;;4.70;4.30;;;;;;;;;;4978526;28;20023;-78
2023/08/30 05:19:25;;;;;;;4.30;3.97;;;;;;;;;;4960738;28;20031;-79
2023/08/30 05:21:54;;;;;;;4.13;3.75;;;;;;;;;;4978413;28;20046;-78
2023/08/30 05:24:20;;;;;;;5.00;4.60;;;;;;;;;;4978645;28;20023;-78
2023/08/30 05:26:46;;;;;;;4.15;3.85;;;;;;;;;;4979200;28;20023;-77
2023/08/30 05:29:13;;;;;;;4.07;3.78;;;;;;;;;;4982745;28;20050;-78
2023/08/30 05:31:40;;;;;;;4.00;3.60;;;;;;;;;;4976644;28;20038;-78
2023/08/30 05:34:06;;;;;;;3.53;3.30;;;;;;;;;;4977133;28;20105;-80
2023/08/30 05:36:32;;;;;;;3.40;3.10;;;;;;;;;;4976568;28;20031;-79
2023/08/30 05:38:58;;;;;;;3.60;3.08;;;;;;;;;;4977377;28;20444;-77
2023/08/30 05:41:24;;;;;;;3.38;3.10;;;;;;;;;;4982610;28;20390;-78
2023/08/30 05:43:52;;;;;;;3.80;3.50;;;;;;;;;;4987804;28;20019;-79
2023/08/30 05:46:18;;;;;;;4.18;3.78;;;;;;;;;;4982844;28;20034;-79
2023/08/30 05:48:44;;;;;;;4.30;4.00;;;;;;;;;;4977833;28;20470;-79
2023/08/30 05:51:10;;;;;;;3.05;2.85;;;;;;;;;;4986353;28;20034;-80
2023/08/30 05:53:36;;;;;;;2.80;2.60;;;;;;;;;;4997180;28;20011;-78
2023/08/30 05:56:03;;;;;;;4.30;4.00;;;;;;;;;;4998029;28;20015;-81
2023/08/30 05:58:29;;;;;;;4.15;3.85;;;;;;;;;;4981125;28;20049;-79
2023/08/30 06:00:55;;;;;;;4.00;3.70;;;;;;;;;;4997772;28;20011;-78
2023/08/30 06:03:21;;;;;;;3.67;3.38;;;;;;;;;;4996714;28;20034;-79
2023/08/30 06:05:48;;;;;;;3.92;3.63;;;;;;;;;;4979122;28;20049;-77
2023/08/30 06:08:14;;;;;;;4.25;3.90;;;;;;;;;;4981086;28;20081;-79
2023/08/30 06:10:41;;;;;;;3.60;3.35;;;;;;;;;;4974884;28;20035;-78
2023/08/30 06:13:07;;;;;;;4.50;4.10;;;;;;;;;;4975732;28;20041;-78
2023/08/30 06:15:33;;;;;;;3.60;3.30;;;;;;;;;;4978380;28;20085;-78
2023/08/30 06:17:59;;;;;;;3.47;3.17;;;;;;;;;;4976108;28;20021;-79
2023/08/30 06:20:25;;;;;;;3.28;3.05;;;;;;;;;;4958288;28;20030;-79
2023/08/30 06:22:52;;;;;;;3.13;2.90;;;;;;;;;;4976250;28;20027;-79
2023/08/30 06:25:18;;;;;;;2.58;2.40;;;;;;;;;;4975868;28;20072;-78
2023/08/30 06:27:56;;;;;;;2.33;2.13;;;;;;;;;;4976450;28;20308;-78
2023/08/30 06:30:22;;;;;;;2.88;2.67;;;;;;;;;;4974752;28;20023;-78
2023/08/30 06:32:49;;;;;;;2.63;2.42;;;;;;;;;;4976333;28;20027;-77
2023/08/30 06:35:15;;;;;;;2.63;2.42;;;;;;;;;;4975308;28;20038;-79
2023/08/30 06:37:41;;;;;;;3.60;3.30;;;;;;;;;;4990495;28;20033;-79
2023/08/30 06:40:08;;;;;;;3.15;2.95;;;;;;;;;;4979149;28;20029;-79
2023/08/30 06:42:34;;;;;;;3.22;2.92;;;;;;;;;;4976867;28;20027;-78
2023/08/30 06:45:00;;;;;;;3.53;3.22;;;;;;;;;;4975342;28;20113;-77
2023/08/30 06:47:26;;;;;;;3.85;3.55;;;;;;;;;;4975600;28;20034;-77
2023/08/30 06:49:52;;;;;;;4.20;3.80;;;;;;;;;;4979586;28;20030;-77
2023/08/30 06:52:18;;;;;;;4.18;3.78;;;;;;;;;;4966346;28;20027;-78
2023/08/30 06:54:44;;;;;;;3.97;3.65;;;;;;;;;;4981393;28;20034;-78
2023/08/30 06:57:10;;;;;;;3.67;3.38;;;;;;;;;;4958198;28;20170;-79
2023/08/30 06:59:36;;;;;;;4.03;3.72;;;;;;;;;;5002171;23;20039;-78
2023/08/30 07:02:03;;;;;;;3.22;3.03;;;;;;;;;;5011196;28;20027;-79
2023/08/30 07:04:29;;;;;;;3.47;3.17;;;;;;;;;;5027092;28;20121;-80
2023/08/30 07:06:55;;;;;;;3.47;3.17;;;;;;;;;;5009185;28;20040;-79
2023/08/30 07:09:28;;;;;;;3.17;2.95;;;;;;;;;;5019867;28;20026;-78
2023/08/30 07:11:54;;;;;;;3.60;3.35;;;;;;;;;;5011722;28;20030;-79
2023/08/30 07:14:20;;;;;;;3.08;2.88;;;;;;;;;;5003463;28;20030;-79
2023/08/30 07:16:49;;;;;;;2.95;2.75;;;;;;;;;;4964916;28;20027;-79
2023/08/30 07:19:15;;;;;;;3.30;3.10;;;;;;;;;;4979816;28;20093;-79
2023/08/30 07:21:42;;;;;;;3.28;3.00;;;;;;;;;;4978206;28;20090;-79
2023/08/30 07:24:08;;;;;;;3.30;3.10;;;;;;;;;;4978452;28;20026;-79
2023/08/30 07:26:34;;;;;;;3.15;2.92;;;;;;;;;;4994069;28;20492;-79
2023/08/30 07:29:01;;;;;;;2.90;2.70;;;;;;;;;;4994621;28;20042;-78
2023/08/30 07:31:27;;;;;;;4.10;3.75;;;;;;;;;;5004121;28;20023;-79
2023/08/30 07:33:53;;;;;;;5.03;4.03;;;;;;;;;;5003762;28;20023;-79
2023/08/30 07:36:20;;;;;;;3.80;3.50;;;;;;;;;;4996579;28;20026;-78
2023/08/30 07:38:46;;;;;;;3.97;3.67;;;;;;;;;;4993448;28;20027;-78
2023/08/30 07:41:12;;;;;;;3.78;3.40;;;;;;;;;;4999681;28;20029;-79
2023/08/30 07:43:38;;;;;;;3.72;3.42;;;;;;;;;;5018767;28;20114;-80
2023/08/30 07:46:04;;;;;;;3.42;3.13;;;;;;;;;;5005158;28;20006;-78
2023/08/30 07:48:30;;;;;;;4.25;3.92;;;;;;;;;;4978935;28;20038;-78
2023/08/30 07:50:57;;;;;;;4.38;4.07;;;;;;;;;;4979709;28;20034;-79
2023/08/30 07:53:23;;;;;;;3.70;3.40;;;;;;;;;;4963405;28;20116;-78
2023/08/30 07:55:52;;;;;;;3.17;2.97;;;;;;;;;;4978618;28;20027;-78
2023/08/30 07:58:18;;;;;;;3.20;3.00;;;;;;;;;;4962300;28;20420;-77
2023/08/30 08:00:44;;;;;;;3.75;3.45;;;;;;;;;;4980707;28;20026;-79
2023/08/30 08:03:10;;;;;;;3.55;3.35;;;;;;;;;;4980640;28;20060;-79
2023/08/30 08:05:37;;;;;;;3.20;3.00;;;;;;;;;;4961231;28;20031;-79
2023/08/30 08:08:03;;;;;;;5.88;4.38;;;;;;;;;;4999067;28;20069;-79
2023/08/30 08:10:34;;;;;;;4.88;4.47;;;;;;;;;;5012458;28;20061;-78
2023/08/30 08:13:00;;;;;;;4.32;4.03;;;;;;;;;;5019095;28;20124;-79
2023/08/30 08:15:26;;;;;;;3.92;3.50;;;;;;;;;;5017340;28;20026;-80
2023/08/30 08:17:52;;;;;;;4.32;4.00;;;;;;;;;;4984268;28;20077;-79
2023/08/30 08:20:19;;;;;;;4.18;3.83;;;;;;;;;;4996562;28;20366;-78
2023/08/30 08:22:45;;;;;;;4.88;4.47;;;;;;;;;;5000877;28;20026;-77
2023/08/30 08:25:12;;;;;;;4.60;4.30;;;;;;;;;;4997700;28;20042;-79
2023/08/30 08:27:38;;;;;;;3.35;3.10;;;;;;;;;;4992274;28;20036;-79
2023/08/30 08:30:04;;;;;;;4.65;4.25;;;;;;;;;;4999835;28;20082;-77
2023/08/30 08:32:31;;;;;;;3.80;3.58;;;;;;;;;;5001520;28;20049;-79
2023/08/30 08:34:57;;;;;;;4.30;4.00;;;;;;;;;;4983970;28;20073;-78
2023/08/30 08:37:23;;;;;;;5.63;5.05;;;;;;;;;;4986632;28;20026;-78
2023/08/30 08:39:50;;;;;;;5.25;4.85;;;;;;;;;;4993906;28;20033;-78
2023/08/30 08:42:20;;;;;;;5.55;5.05;;;;;;;;;;5000193;28;20026;-79
2023/08/30 08:44:52;;;;;;;5.28;4.78;;;;;;;;;;4998463;28;20396;-78
2023/08/30 08:47:20;;;;;;;4.20;3.90;;;;;;;;;;4996985;28;20030;-78
2023/08/30 08:49:46;;;;;;;3.35;3.15;;;;;;;;;;4998131;28;20034;-78
2023/08/30 08:52:14;;;;;;;3.00;2.80;;;;;;;;;;4979348;28;20026;-79
2023/08/30 08:54:41;;;;;;;3.13;2.92;;;;;;;;;;5000646;28;20014;-77
2023/08/30 08:57:08;;;;;;;2.30;2.20;;;;;;;;;;5000135;28;20077;-79
2023/08/30 08:59:34;;;;;;;2.22;2.03;;;;;;;;;;4982754;28;20034;-78
2023/08/30 09:02:01;;;;;;;1.77;1.67;;;;;;;;;;4961209;28;20062;-78
2023/08/30 09:04:28;;;;;;;1.80;1.70;;;;;;;;;;4979967;28;20077;-79
2023/08/30 09:06:54;;;;;;;1.58;1.55;;;;;;;;;;4997437;28;20032;-78
2023/08/30 09:09:20;;;;;;;1.85;1.75;;;;;;;;;;5004431;28;20034;-78
2023/08/30 09:11:46;;;;;;;1.50;1.40;;;;;;;;;;5016591;28;20032;-78
2023/08/30 09:14:12;;;;;;;1.30;1.30;;;;;;;;;;5017429;28;20030;-78
2023/08/30 09:16:38;;;;;;;1.02;1.02;;;;;;;;;;5016773;28;20125;-78
2023/08/30 09:19:05;;;;;;;1.13;1.13;;;;;;;;;;4989902;28;20109;-79
2023/08/30 09:21:31;;;;;;;1.00;1.00;;;;;;;;;;4999337;28;20070;-78
2023/08/30 09:24:02;;;;;;;2.17;1.33;;;;;;;;;;4999510;28;20122;-77
2023/08/30 09:26:31;;;;;;;2.55;2.45;;;;;;;;;;4979022;28;20026;-78
2023/08/30 09:29:03;;;;;;;2.22;2.10;;;;;;;;;;4978618;28;20073;-78
2023/08/30 09:31:33;;;;;;;1.92;1.83;;;;;;;;;;4996738;28;20019;-79
2023/08/30 09:34:01;;;;;;;2.05;1.85;;;;;;;;;;4997298;28;20022;-78
2023/08/30 09:36:27;;;;;;;1.42;1.33;;;;;;;;;;4995820;28;20057;-77
2023/08/30 09:38:53;;;;;;;1.23;1.13;;;;;;;;;;5013922;28;20048;-78
2023/08/30 09:41:19;;;;;;;1.30;1.20;;;;;;;;;;5009397;28;20397;-78
2023/08/30 09:43:47;;;;;;;1.02;1.00;;;;;;;;;;4995414;28;20022;-78
2023/08/30 09:46:13;;;;;;;1.20;1.20;;;;;;;;;;4997491;28;20095;-78
2023/08/30 09:48:40;;;;;;;1.50;1.40;;;;;;;;;;4981174;28;20303;-78
2023/08/30 09:51:08;;;;;;;1.40;1.30;;;;;;;;;;4979555;28;20039;-77
2023/08/30 09:53:36;;;;;;;1.10;1.10;;;;;;;;;;4974371;28;20027;-79
2023/08/30 09:56:02;;;;;;;1.05;1.05;;;;;;;;;;4975663;28;20117;-78
2023/08/30 09:58:29;;;;;;;1.48;1.13;;;;;;;;;;4975868;28;20023;-79
2023/08/30 10:00:55;;;;;;;1.33;1.33;;;;;;;;;;4979031;28;20045;-79
2023/08/30 10:03:22;;;;;;;1.05;1.05;;;;;;;;;;4984401;28;20066;-77
2023/08/30 10:05:48;;;;;;;1.10;1.10;;;;;;;;;;4996306;28;20098;-79
2023/08/30 10:08:15;;;;;;;0.82;0.82;;;;;;;;;;5027569;28;20017;-80
2023/08/30 10:10:41;;;;;;;1.17;1.17;;;;;;;;;;5006595;28;20046;-79
2023/08/30 10:13:07;;;;;;;0.90;0.90;;;;;;;;;;4983833;28;20221;-78
2023/08/30 10:15:34;;;;;;;0.77;0.77;;;;;;;;;;5013955;28;20038;-78
2023/08/30 10:18:02;;;;;;;0.80;0.80;;;;;;;;;;5012360;28;20569;-79
2023/08/30 10:20:29;;;;;;;0.80;0.80;;;;;;;;;;4995360;28;20056;-79
2023/08/30 10:22:56;;;;;;;1.17;0.80;;;;;;;;;;4979930;28;20022;-78
2023/08/30 10:25:25;;;;;;;1.25;1.17;;;;;;;;;;4977153;28;20509;-78
2023/08/30 10:27:52;;;;;;;1.20;1.20;;;;;;;;;;4978696;28;20030;-79
2023/08/30 10:30:20;;;;;;;0.95;0.95;;;;;;;;;;4976220;28;20185;-77
2023/08/30 10:32:46;;;;;;;0.65;0.60;;;;;;;;;;4976657;28;20018;-77
2023/08/30 10:35:16;;;;;;;0.85;0.85;;;;;;;;;;4995364;28;20044;-78
2023/08/30 10:37:43;;;;;;;0.88;0.88;;;;;;;;;;5003933;28;20048;-78
2023/08/30 10:40:10;;;;;;;1.00;1.00;;;;;;;;;;5016295;28;20073;-79
2023/08/30 10:42:36;;;;;;;0.82;0.80;;;;;;;;;;4986716;28;20563;-78
2023/08/30 10:45:07;;;;;;;1.00;0.90;;;;;;;;;;4957904;28;20085;-78
2023/08/30 10:47:37;;;;;;;0.80;0.80;;;;;;;;;;4975337;28;20034;-77
2023/08/30 10:50:07;;;;;;;0.80;0.80;;;;;;;;;;4958040;28;20031;-78
2023/08/30 10:52:33;;;;;;;1.00;1.00;;;;;;;;;;4987468;28;20061;-78
2023/08/30 10:55:09;;;;;;;0.77;0.70;;;;;;;;;;4997388;28;20042;-79
2023/08/30 10:57:36;;;;;;;1.05;0.90;;;;;;;;;;4997633;28;20072;-79
2023/08/30 11:00:21;;;;;;;0.70;0.70;;;;;;;;;;5002025;28;20034;-80
2023/08/30 11:02:51;;;;;;;0.70;0.70;;;;;;;;;;4989620;28;20027;-78
2023/08/30 11:05:18;;;;;;;1.67;1.30;;;;;;;;;;4975858;28;20113;-77
2023/08/30 11:07:45;;;;;;;1.45;1.35;;;;;;;;;;4997921;28;20048;-77
2023/08/30 11:10:11;;;;;;;0.90;0.90;;;;;;;;;;5001355;28;20026;-77
2023/08/30 11:12:37;;;;;;;2.90;0.82;;;;;;;;;;4990365;28;20482;-77
2023/08/30 11:15:04;;;;;;;0.90;0.90;;;;;;;;;;5008899;28;20072;-78
2023/08/30 11:17:30;;;;;;;1.20;1.17;;;;;;;;;;5010400;28;20026;-78
2023/08/30 11:20:06;;;;;;;1.23;0.90;;;;;;;;;;5003676;28;20381;-78
2023/08/30 11:22:32;;;;;;;1.17;1.17;;;;;;;;;;4999978;28;20031;-78
2023/08/30 11:24:59;;;;;;;1.45;1.20;;;;;;;;;;4964459;28;20031;-78
2023/08/30 11:27:25;;;;;;;1.60;1.10;;;;;;;;;;4981844;28;20034;-77
2023/08/30 11:29:51;;;;;;;1.25;1.15;;;;;;;;;;4964692;28;20031;-77
2023/08/30 11:32:17;;;;;;;1.08;1.08;;;;;;;;;;4966463;28;20051;-78
2023/08/30 11:34:44;;;;;;;0.90;0.85;;;;;;;;;;5000622;28;20035;-79
2023/08/30 11:37:10;;;;;;;1.15;1.00;;;;;;;;;;4988919;28;20033;-78
2023/08/30 11:39:36;;;;;;;0.82;0.82;;;;;;;;;;4987339;28;20026;-79
2023/08/30 11:42:05;;;;;;;0.65;0.65;;;;;;;;;;5000650;28;20053;-78
2023/08/30 11:44:33;;;;;;;0.95;0.93;;;;;;;;;;4994121;28;20092;-77
2023/08/30 11:46:59;;;;;;;0.82;0.82;;;;;;;;;;5000262;28;20109;-77
2023/08/30 11:49:26;;;;;;;0.70;0.70;;;;;;;;;;4983300;28;20071;-79
2023/08/30 11:51:52;;;;;;;0.68;0.68;;;;;;;;;;4984599;28;20377;-79
2023/08/30 11:54:19;;;;;;;0.80;0.80;;;;;;;;;;4997594;28;20032;-78
2023/08/30 11:56:45;;;;;;;0.80;0.80;;;;;;;;;;5003588;28;20030;-78
2023/08/30 11:59:24;;;;;;;0.60;0.60;;;;;;;;;;5002879;28;20026;-78
2023/08/30 12:01:53;;;;;;;0.82;0.82;;;;;;;;;;4985309;28;20426;-78
2023/08/30 12:04:19;;;;;;;0.63;0.63;;;;;;;;;;5002446;28;20027;-78
2023/08/30 12:06:52;;;;;;;0.80;0.80;;;;;;;;;;5001872;28;20027;-79
2023/08/30 12:09:21;;;;;;;0.80;0.80;;;;;;;;;;4984403;28;20485;-78
2023/08/30 12:11:47;;;;;;;0.70;0.70;;;;;;;;;;4997725;28;20030;-77
2023/08/30 12:14:13;;;;;;;0.60;0.60;;;;;;;;;;5003629;28;20081;-78
2023/08/30 12:16:40;;;;;;;2.42;0.95;;;;;;;;;;4996366;28;20022;-78
2023/08/30 12:19:10;;;;;;;0.77;0.77;;;;;;;;;;5001113;28;20031;-78
2023/08/30 12:21:40;;;;;;;0.90;0.90;;;;;;;;;;4981287;28;20569;-78
2023/08/30 12:24:06;;;;;;;0.80;0.80;;;;;;;;;;5003110;28;20050;-79
2023/08/30 12:26:33;;;;;;;0.70;0.70;;;;;;;;;;4997797;28;20037;-79
2023/08/30 12:28:59;;;;;;;0.80;0.80;;;;;;;;;;4998363;28;20110;-76
2023/08/30 12:31:27;;;;;;;0.60;0.60;;;;;;;;;;4998039;28;20027;-77
2023/08/30 12:33:54;;;;;;;0.68;0.68;;;;;;;;;;4987825;28;20033;-77
2023/08/30 12:36:20;;;;;;;0.80;0.80;;;;;;;;;;4992919;28;20041;-77
2023/08/30 12:38:46;;;;;;;0.60;0.60;;;;;;;;;;4978100;28;20081;-78
2023/08/30 12:41:12;;;;;;;0.60;0.60;;;;;;;;;;4998752;28;20076;-78
2023/08/30 12:43:38;;;;;;;0.55;0.55;;;;;;;;;;4998231;28;20316;-77
2023/08/30 12:46:05;;;;;;;0.70;0.70;;;;;;;;;;4996722;28;20045;-76
2023/08/30 12:48:31;;;;;;;1.30;1.00;;;;;;;;;;4995869;28;20039;-77
2023/08/30 12:50:57;;;;;;;1.70;1.10;;;;;;;;;;4991737;28;20054;-79
2023/08/30 12:53:23;;;;;;;1.15;1.00;;;;;;;;;;4998049;28;20026;-78
2023/08/30 12:55:49;;;;;;;1.20;1.20;;;;;;;;;;4993198;28;20098;-78
2023/08/30 12:58:15;;;;;;;0.90;0.90;;;;;;;;;;4980617;28;20034;-78
2023/08/30 13:00:41;;;;;;;3.38;1.10;;;;;;;;;;5002646;28;20022;-79
2023/08/30 13:03:07;;;;;;;1.02;0.75;;;;;;;;;;4995808;28;20100;-77
2023/08/30 13:05:34;;;;;;;1.38;0.75;;;;;;;;;;4996520;28;20018;-78
2023/08/30 13:08:00;;;;;;;0.80;0.75;;;;;;;;;;4992476;28;20102;-78
2023/08/30 13:10:26;;;;;;;0.70;0.70;;;;;;;;;;5002548;28;20033;-78
2023/08/30 13:12:52;;;;;;;0.73;0.73;;;;;;;;;;5013644;28;20066;-78
2023/08/30 13:15:18;;;;;;;0.60;0.60;;;;;;;;;;5009865;28;20022;-78
2023/08/30 13:17:45;;;;;;;0.60;0.60;;;;;;;;;;4979930;28;20374;-78
2023/08/30 13:20:11;;;;;;;0.60;0.60;;;;;;;;;;5004313;28;20021;-79
2023/08/30 13:22:37;;;;;;;0.60;0.60;;;;;;;;;;5008956;28;20086;-76
2023/08/30 13:25:03;;;;;;;0.60;0.60;;;;;;;;;;5004884;28;20610;-78
2023/08/30 13:27:30;;;;;;;0.45;0.45;;;;;;;;;;4993109;28;20503;-79
2023/08/30 13:29:57;;;;;;;0.52;0.52;;;;;;;;;;4994567;28;20022;-79
2023/08/30 13:32:23;;;;;;;0.40;0.40;;;;;;;;;;4994684;28;20477;-78
2023/08/30 13:34:50;;;;;;;0.50;0.50;;;;;;;;;;4990964;28;20030;-78
2023/08/30 13:37:16;;;;;;;0.88;0.80;;;;;;;;;;4988900;28;20371;-79
2023/08/30 13:39:42;;;;;;;0.60;0.60;;;;;;;;;;4995433;28;20041;-78
2023/08/30 13:42:09;;;;;;;1.30;1.20;;;;;;;;;;4975421;28;20037;-78
2023/08/30 13:44:37;;;;;;;2.65;1.20;;;;;;;;;;4990422;28;20038;-78
2023/08/30 13:47:04;;;;;;;1.50;1.40;;;;;;;;;;4975071;28;20430;-77
2023/08/30 13:49:30;;;;;;;1.60;1.27;;;;;;;;;;4974131;28;20035;-78
2023/08/30 13:51:56;;;;;;;1.70;1.30;;;;;;;;;;4990672;28;20030;-78
2023/08/30 13:54:22;;;;;;;2.22;1.50;;;;;;;;;;4973846;28;20031;-78
2023/08/30 13:56:48;;;;;;;1.75;1.65;;;;;;;;;;4994776;28;20023;-78
2023/08/30 13:59:14;;;;;;;1.52;1.42;;;;;;;;;;4990119;28;20022;-78
2023/08/30 14:01:41;;;;;;;1.50;1.40;;;;;;;;;;4993028;28;20097;-79
2023/08/30 14:04:07;;;;;;;1.50;1.40;;;;;;;;;;4995137;28;20097;-77
2023/08/30 14:06:33;;;;;;;1.65;1.40;;;;;;;;;;4994506;28;20050;-78
2023/08/30 14:08:59;;;;;;;1.73;1.42;;;;;;;;;;4982834;28;20117;-79
2023/08/30 14:11:25;;;;;;;1.95;1.40;;;;;;;;;;4994791;28;20019;-76
2023/08/30 14:13:51;;;;;;;2.15;1.65;;;;;;;;;;4995426;28;20014;-77
2023/08/30 14:16:18;;;;;;;1.40;1.30;;;;;;;;;;4996642;28;20022;-78
2023/08/30 14:18:44;;;;;;;2.55;1.45;;;;;;;;;;5006035;28;20548;-78
2023/08/30 14:21:10;;;;;;;1.50;1.15;;;;;;;;;;5013127;28;20010;-77
2023/08/30 14:23:36;;;;;;;2.03;1.10;;;;;;;;;;5006469;28;20018;-78
2023/08/30 14:26:10;;;;;;;1.30;1.20;;;;;;;;;;5003636;28;20029;-78
2023/08/30 14:28:36;;;;;;;1.15;1.10;;;;;;;;;;5004700;28;20046;-77
2023/08/30 14:31:04;;;;;;;1.30;1.05;;;;;;;;;;5012882;28;20303;-80
2023/08/30 14:33:30;;;;;;;1.10;0.98;;;;;;;;;;4982970;28;20029;-81
2023/08/30 14:35:56;;;;;;;0.88;0.88;;;;;;;;;;4996312;28;20092;-77
2023/08/30 14:38:23;;;;;;;0.90;0.88;;;;;;;;;;4977327;28;20027;-78
2023/08/30 14:40:59;;;;;;;0.68;0.68;;;;;;;;;;4996967;28;20598;-78